createdAt,value
2023-04-18T00:00:43.004Z,7.90
2023-04-18T00:03:09.804Z,7.80
2023-04-18T00:05:36.717Z,7.80
2023-04-18T00:08:11.662Z,7.80
2023-04-18T00:10:38.287Z,7.80
2023-04-18T00:13:05.284Z,7.80
2023-04-18T00:15:32.328Z,7.70
2023-04-18T00:18:00.774Z,7.60
2023-04-18T00:20:27.512Z,7.70
2023-04-18T00:22:54.938Z,7.70
2023-04-18T00:25:21.729Z,7.60
2023-04-18T00:27:48.353Z,7.60
2023-04-18T00:30:15.411Z,7.60
2023-04-18T00:32:42.069Z,7.60
2023-04-18T00:35:09.009Z,7.60
2023-04-18T00:37:35.838Z,7.60
2023-04-18T00:40:02.598Z,7.50
2023-04-18T00:42:29.387Z,7.60
2023-04-18T00:44:56.161Z,7.60
2023-04-18T00:47:22.979Z,7.40
2023-04-18T00:49:49.875Z,7.40
2023-04-18T00:52:17.496Z,7.40
2023-04-18T00:54:44.662Z,7.50
2023-04-18T00:57:12.196Z,7.40
2023-04-18T00:59:39.167Z,7.30
2023-04-18T01:02:06.211Z,7.20
2023-04-18T01:04:33.569Z,7.20
2023-04-18T01:07:02.124Z,7.20
2023-04-18T01:09:29.138Z,7.30
2023-04-18T01:11:55.918Z,7.30
2023-04-18T01:14:23.375Z,7.30
2023-04-18T01:16:49.960Z,7.40
2023-04-18T01:19:17.429Z,7.30
2023-04-18T01:21:44.451Z,7.40
2023-04-18T01:24:13.922Z,7.40
2023-04-18T01:26:43.525Z,7.40
2023-04-18T01:29:10.573Z,7.40
2023-04-18T01:31:38.507Z,7.30
2023-04-18T01:34:06.255Z,7.30
2023-04-18T01:36:33.449Z,7.20
2023-04-18T01:39:00.617Z,7.20
2023-04-18T01:41:29.675Z,7.10
2023-04-18T01:43:56.494Z,7.10
2023-04-18T01:46:23.302Z,7.00
2023-04-18T01:48:50.152Z,7.00
2023-04-18T01:51:16.816Z,7.00
2023-04-18T01:53:43.481Z,7.00
2023-04-18T01:56:10.366Z,7.00
2023-04-18T01:58:37.507Z,7.00
2023-04-18T02:01:04.312Z,6.80
2023-04-18T02:03:31.162Z,6.90
2023-04-18T02:05:58.099Z,6.80
2023-04-18T02:08:24.845Z,6.90
2023-04-18T02:10:51.532Z,6.80
2023-04-18T02:13:18.311Z,6.70
2023-04-18T02:15:49.025Z,6.70
2023-04-18T02:18:17.245Z,6.70
2023-04-18T02:20:45.013Z,6.50
2023-04-18T02:23:11.828Z,6.50
2023-04-18T02:25:38.463Z,6.50
2023-04-18T02:28:05.202Z,6.60
2023-04-18T02:30:31.774Z,6.60
2023-04-18T02:32:58.318Z,6.60
2023-04-18T02:35:26.026Z,6.60
2023-04-18T02:37:52.802Z,6.70
2023-04-18T02:40:19.754Z,6.50
2023-04-18T02:42:46.737Z,6.50
2023-04-18T02:45:13.327Z,6.50
2023-04-18T02:47:53.655Z,6.50
2023-04-18T02:50:20.917Z,6.40
2023-04-18T02:52:47.505Z,6.50
2023-04-18T02:55:14.297Z,6.60
2023-04-18T02:57:40.882Z,6.60
2023-04-18T03:00:08.652Z,6.60
2023-04-18T03:02:35.647Z,6.70
2023-04-18T03:05:02.772Z,6.70
2023-04-18T03:07:30.698Z,6.80
2023-04-18T03:09:57.426Z,6.80
2023-04-18T03:12:24.178Z,6.80
2023-04-18T03:14:50.868Z,6.90
2023-04-18T03:17:18.114Z,6.90
2023-04-18T03:19:46.264Z,6.90
2023-04-18T03:22:14.167Z,6.80
2023-04-18T03:24:40.925Z,6.90
2023-04-18T03:27:07.605Z,6.90
2023-04-18T03:29:34.498Z,6.90
2023-04-18T03:32:01.146Z,6.90
2023-04-18T03:34:27.981Z,6.80
2023-04-18T03:36:54.624Z,6.80
2023-04-18T03:39:21.295Z,6.80
2023-04-18T03:41:48.007Z,6.80
2023-04-18T03:44:14.936Z,6.80
2023-04-18T03:46:42.095Z,6.80
2023-04-18T03:49:08.805Z,6.70
2023-04-18T03:51:47.612Z,6.70
2023-04-18T03:54:15.267Z,6.60
2023-04-18T03:56:42.489Z,6.70
2023-04-18T03:59:09.569Z,6.70
2023-04-18T04:01:36.482Z,6.60
2023-04-18T04:04:04.220Z,6.60
2023-04-18T04:06:32.061Z,6.50
2023-04-18T04:08:58.714Z,6.50
2023-04-18T04:11:25.491Z,6.50
2023-04-18T04:13:52.147Z,6.50
2023-04-18T04:16:19.020Z,6.50
2023-04-18T04:18:45.706Z,6.40
2023-04-18T04:21:12.542Z,6.40
2023-04-18T04:23:41.906Z,6.40
2023-04-18T04:26:09.127Z,6.50
2023-04-18T04:28:36.020Z,6.50
2023-04-18T04:31:06.502Z,6.60
2023-04-18T04:33:35.499Z,6.60
2023-04-18T04:36:02.232Z,6.50
2023-04-18T04:38:30.747Z,6.60
2023-04-18T04:40:58.194Z,6.60
2023-04-18T04:43:25.936Z,6.50
2023-04-18T04:45:53.606Z,6.50
2023-04-18T04:48:21.939Z,6.60
2023-04-18T04:50:57.067Z,6.60
2023-04-18T04:53:26.539Z,6.50
2023-04-18T04:55:53.203Z,6.60
2023-04-18T04:58:22.562Z,6.70
2023-04-18T05:00:50.785Z,6.70
2023-04-18T05:03:17.877Z,6.70
2023-04-18T05:05:45.286Z,6.80
2023-04-18T05:08:11.905Z,6.80
2023-04-18T05:10:38.549Z,6.90
2023-04-18T05:13:05.382Z,7.00
2023-04-18T05:15:32.596Z,6.90
2023-04-18T05:17:59.443Z,7.00
2023-04-18T05:20:26.084Z,7.00
2023-04-18T05:22:52.749Z,7.10
2023-04-18T05:25:19.710Z,7.20
2023-04-18T05:27:47.014Z,7.20
2023-04-18T05:30:14.167Z,7.30
2023-04-18T05:32:40.912Z,7.30
2023-04-18T05:35:08.316Z,7.40
2023-04-18T05:37:35.176Z,7.50
2023-04-18T05:40:01.935Z,7.50
2023-04-18T05:42:28.601Z,7.60
2023-04-18T05:44:55.354Z,7.60
2023-04-18T05:47:23.971Z,7.70
2023-04-18T05:49:50.675Z,7.70
2023-04-18T05:52:17.213Z,7.70
2023-04-18T05:54:43.832Z,7.80
2023-04-18T05:57:10.901Z,7.80
2023-04-18T05:59:37.675Z,7.80
2023-04-18T06:02:04.420Z,7.80
2023-04-18T06:04:31.318Z,7.90
2023-04-18T06:06:58.280Z,7.90
2023-04-18T06:09:25.030Z,7.90
2023-04-18T06:11:51.806Z,8.00
2023-04-18T06:14:18.507Z,8.00
2023-04-18T06:16:45.198Z,8.00
2023-04-18T06:19:11.845Z,8.00
2023-04-18T06:21:39.408Z,8.10
2023-04-18T06:24:06.641Z,8.20
2023-04-18T06:26:33.315Z,8.10
2023-04-18T06:28:59.933Z,8.20
2023-04-18T06:31:26.741Z,8.20
2023-04-18T06:33:53.398Z,8.20
2023-04-18T06:36:20.139Z,8.20
2023-04-18T06:38:46.860Z,8.20
2023-04-18T06:41:17.042Z,8.30
2023-04-18T06:43:52.386Z,8.20
2023-04-18T06:46:29.372Z,8.20
2023-04-18T06:48:56.288Z,8.20
2023-04-18T06:51:23.203Z,8.20
2023-04-18T06:53:52.629Z,8.20
2023-04-18T06:56:20.504Z,8.30
2023-04-18T06:58:47.535Z,8.40
2023-04-18T07:01:14.504Z,8.40
2023-04-18T07:03:41.350Z,8.50
2023-04-18T07:06:10.427Z,8.50
2023-04-18T07:08:37.451Z,8.60
2023-04-18T07:11:04.247Z,8.70
2023-04-18T07:13:30.970Z,8.80
2023-04-18T07:15:57.799Z,8.80
2023-04-18T07:18:36.786Z,8.80
2023-04-18T07:21:07.275Z,8.90
2023-04-18T07:23:34.383Z,8.90
2023-04-18T07:26:02.614Z,9.00
2023-04-18T07:28:31.132Z,9.10
2023-04-18T07:30:58.463Z,9.20
2023-04-18T07:33:25.581Z,9.30
2023-04-18T07:35:53.028Z,9.40
2023-04-18T07:38:19.953Z,9.50
2023-04-18T07:40:46.630Z,9.60
2023-04-18T07:43:13.352Z,9.70
2023-04-18T07:45:42.938Z,9.90
2023-04-18T07:48:09.652Z,10.00
2023-04-18T07:50:36.318Z,10.10
2023-04-18T07:53:04.031Z,10.20
2023-04-18T07:55:30.658Z,10.20
2023-04-18T07:57:57.402Z,10.10
2023-04-18T08:00:24.618Z,10.10
2023-04-18T08:02:51.382Z,10.20
2023-04-18T08:05:21.092Z,10.20
2023-04-18T08:07:47.888Z,10.40
2023-04-18T08:10:14.597Z,10.60
2023-04-18T08:12:41.352Z,10.80
2023-04-18T08:15:08.680Z,10.90
2023-04-18T08:17:35.817Z,11.00
2023-04-18T08:20:07.137Z,11.00
2023-04-18T08:22:33.918Z,11.00
2023-04-18T08:25:04.859Z,11.00
2023-04-18T08:27:32.638Z,11.00
2023-04-18T08:30:00.421Z,11.10
2023-04-18T08:32:27.199Z,11.20
2023-04-18T08:34:53.894Z,11.30
2023-04-18T08:37:20.703Z,11.30
2023-04-18T08:39:47.449Z,11.40
2023-04-18T08:42:19.056Z,11.30
2023-04-18T08:44:47.233Z,11.40
2023-04-18T08:47:14.690Z,11.50
2023-04-18T08:49:42.130Z,11.30
2023-04-18T08:52:14.185Z,11.30
2023-04-18T08:54:46.677Z,11.40
2023-04-18T08:57:16.601Z,11.50
2023-04-18T08:59:48.940Z,11.50
2023-04-18T09:02:18.027Z,11.80
2023-04-18T09:04:48.452Z,11.90
2023-04-18T09:07:16.669Z,12.30
2023-04-18T09:09:51.852Z,12.50
2023-04-18T09:12:22.295Z,12.60
2023-04-18T09:14:57.887Z,12.90
2023-04-18T09:17:32.781Z,13.10
2023-04-18T09:20:00.303Z,13.30
2023-04-18T09:22:43.296Z,13.40
2023-04-18T09:25:09.986Z,13.50
2023-04-18T09:27:37.350Z,13.70
2023-04-18T09:30:04.387Z,13.80
2023-04-18T09:32:31.176Z,13.80
2023-04-18T09:35:04.653Z,14.00
2023-04-18T09:37:31.750Z,14.00
2023-04-18T09:39:58.469Z,14.00
2023-04-18T09:42:27.441Z,14.00
2023-04-18T09:45:06.923Z,14.10
2023-04-18T09:47:35.100Z,14.20
2023-04-18T09:50:07.313Z,14.30
2023-04-18T09:52:39.135Z,14.30
2023-04-18T09:55:08.603Z,14.30
2023-04-18T09:57:36.873Z,14.40
2023-04-18T10:00:23.995Z,14.10
2023-04-18T10:03:08.096Z,14.00
2023-04-18T10:05:36.702Z,14.20
2023-04-18T10:08:04.402Z,14.80
2023-04-18T10:10:32.332Z,14.90
2023-04-18T10:13:01.394Z,14.80
2023-04-18T10:15:29.724Z,14.80
2023-04-18T10:18:04.486Z,14.70
2023-04-18T10:20:35.189Z,14.80
2023-04-18T10:23:31.167Z,15.10
2023-04-18T10:25:58.952Z,15.10
2023-04-18T10:28:27.384Z,14.90
2023-04-18T10:30:56.461Z,14.90
2023-04-18T10:33:30.857Z,14.80
2023-04-18T10:36:13.773Z,14.90
2023-04-18T10:38:45.618Z,15.20
2023-04-18T10:41:21.216Z,15.50
2023-04-18T10:44:15.609Z,15.30
2023-04-18T10:46:53.004Z,15.50
2023-04-18T10:49:25.833Z,15.80
2023-04-18T10:51:58.824Z,16.00
2023-04-18T10:54:51.399Z,16.10
2023-04-18T10:57:18.133Z,16.60
2023-04-18T10:59:49.394Z,16.70
2023-04-18T11:02:30.400Z,16.80
2023-04-18T11:05:02.245Z,16.70
2023-04-18T11:07:42.151Z,16.80
2023-04-18T11:10:09.710Z,16.20
2023-04-18T11:12:39.060Z,16.00
2023-04-18T11:15:22.950Z,16.20
2023-04-18T11:17:59.900Z,16.30
2023-04-18T11:20:27.022Z,16.00
2023-04-18T11:22:54.721Z,15.80
2023-04-18T11:25:28.062Z,15.80
2023-04-18T11:27:58.124Z,15.80
2023-04-18T11:30:25.000Z,15.60
2023-04-18T11:32:52.092Z,15.70
2023-04-18T11:35:18.893Z,16.00
2023-04-18T11:37:45.813Z,16.10
2023-04-18T11:40:13.827Z,15.90
2023-04-18T11:42:41.325Z,15.70
2023-04-18T11:45:15.283Z,15.70
2023-04-18T11:47:43.208Z,15.50
2023-04-18T11:50:11.866Z,15.60
2023-04-18T11:52:41.082Z,15.70
2023-04-18T11:55:14.897Z,15.70
2023-04-18T11:57:41.931Z,15.80
2023-04-18T12:00:12.074Z,15.70
2023-04-18T12:02:43.300Z,15.90
2023-04-18T12:05:15.060Z,15.90
2023-04-18T12:07:45.051Z,16.00
2023-04-18T12:10:25.571Z,16.20
2023-04-18T12:12:59.710Z,16.40
2023-04-18T12:15:28.528Z,16.40
2023-04-18T12:18:03.740Z,16.30
2023-04-18T12:20:40.230Z,16.20
2023-04-18T12:23:07.655Z,16.10
2023-04-18T12:25:35.075Z,16.00
2023-04-18T12:28:06.898Z,15.90
2023-04-18T12:30:37.355Z,15.90
2023-04-18T12:33:11.116Z,15.90
2023-04-18T12:35:38.141Z,16.00
2023-04-18T12:38:05.790Z,16.30
2023-04-18T12:40:32.501Z,16.20
2023-04-18T12:43:00.499Z,16.20
2023-04-18T12:45:29.009Z,16.10
2023-04-18T12:48:00.343Z,16.30
2023-04-18T12:50:27.685Z,16.50
2023-04-18T12:52:57.021Z,16.50
2023-04-18T12:55:24.120Z,16.40
2023-04-18T12:57:54.411Z,16.10
2023-04-18T13:00:23.437Z,15.90
2023-04-18T13:02:52.301Z,15.80
2023-04-18T13:05:21.498Z,15.70
2023-04-18T13:07:49.753Z,15.60
2023-04-18T13:10:21.587Z,15.50
2023-04-18T13:12:50.139Z,15.40
2023-04-18T13:15:22.775Z,15.40
2023-04-18T13:17:49.911Z,15.30
2023-04-18T13:20:16.650Z,15.30
2023-04-18T13:22:44.468Z,15.30
2023-04-18T13:25:11.805Z,15.20
2023-04-18T13:27:41.579Z,15.20
2023-04-18T13:30:10.608Z,15.20
2023-04-18T13:32:39.069Z,15.30
2023-04-18T13:35:08.243Z,15.20
2023-04-18T13:37:35.531Z,15.20
2023-04-18T13:40:05.237Z,15.20
2023-04-18T13:42:32.352Z,15.30
2023-04-18T13:45:00.066Z,15.50
2023-04-18T13:47:26.979Z,15.70
2023-04-18T13:49:53.780Z,15.80
2023-04-18T13:52:20.512Z,15.80
2023-04-18T13:54:50.353Z,15.80
2023-04-18T13:57:17.031Z,15.80
2023-04-18T13:59:43.845Z,15.90
2023-04-18T14:02:10.899Z,15.80
2023-04-18T14:04:37.828Z,15.70
2023-04-18T14:07:06.174Z,15.60
2023-04-18T14:09:33.055Z,15.50
2023-04-18T14:11:59.848Z,15.70
2023-04-18T14:14:26.496Z,15.70
2023-04-18T14:16:53.936Z,15.70
2023-04-18T14:19:20.925Z,15.50
2023-04-18T14:22:03.085Z,15.40
2023-04-18T14:24:30.039Z,15.50
2023-04-18T14:26:59.761Z,15.40
2023-04-18T14:29:27.774Z,15.30
2023-04-18T14:31:54.619Z,15.40
2023-04-18T14:34:21.257Z,15.80
2023-04-18T14:36:48.084Z,16.10
2023-04-18T14:39:15.214Z,16.20
2023-04-18T14:41:41.886Z,16.10
2023-04-18T14:44:08.681Z,15.80
2023-04-18T14:46:35.600Z,16.20
2023-04-18T14:49:02.393Z,16.80
2023-04-18T14:51:29.100Z,16.60
2023-04-18T14:53:55.851Z,16.30
2023-04-18T14:56:24.169Z,16.10
2023-04-18T14:58:50.878Z,16.20
2023-04-18T15:01:17.636Z,16.20
2023-04-18T15:03:45.423Z,16.30
2023-04-18T15:06:12.536Z,16.40
2023-04-18T15:08:39.331Z,16.50
2023-04-18T15:11:09.404Z,16.40
2023-04-18T15:13:36.554Z,16.50
2023-04-18T15:16:03.592Z,16.50
2023-04-18T15:18:30.314Z,16.40
2023-04-18T15:21:00.192Z,16.40
2023-04-18T15:23:27.462Z,16.90
2023-04-18T15:25:54.181Z,17.30
2023-04-18T15:28:20.841Z,17.80
2023-04-18T15:30:47.565Z,17.20
2023-04-18T15:33:15.540Z,16.80
2023-04-18T15:35:42.232Z,16.50
2023-04-18T15:38:08.815Z,16.30
2023-04-18T15:40:36.513Z,16.00
2023-04-18T15:43:04.009Z,16.00
2023-04-18T15:45:31.250Z,15.90
2023-04-18T15:47:58.538Z,15.80
2023-04-18T15:50:25.906Z,15.80
2023-04-18T15:52:52.637Z,15.80
2023-04-18T15:55:19.613Z,15.60
2023-04-18T15:57:46.769Z,15.50
2023-04-18T16:00:17.651Z,15.40
2023-04-18T16:02:45.838Z,15.20
2023-04-18T16:05:13.688Z,15.20
2023-04-18T16:07:41.306Z,15.20
2023-04-18T16:10:10.550Z,14.90
2023-04-18T16:12:38.252Z,14.90
2023-04-18T16:15:06.939Z,15.00
2023-04-18T16:17:33.814Z,14.90
2023-04-18T16:20:00.511Z,14.80
2023-04-18T16:22:27.274Z,14.80
2023-04-18T16:24:54.256Z,14.80
2023-04-18T16:27:21.177Z,14.70
2023-04-18T16:29:47.960Z,14.60
2023-04-18T16:32:14.671Z,14.50
2023-04-18T16:34:41.324Z,14.40
2023-04-18T16:37:08.016Z,14.40
2023-04-18T16:39:36.515Z,14.30
2023-04-18T16:42:03.771Z,14.30
2023-04-18T16:44:33.075Z,14.20
2023-04-18T16:47:00.080Z,14.10
2023-04-18T16:49:26.936Z,14.10
2023-04-18T16:51:53.562Z,14.10
2023-04-18T16:54:20.292Z,14.00
2023-04-18T16:56:47.330Z,14.00
2023-04-18T16:59:14.134Z,14.00
2023-04-18T17:01:40.777Z,14.00
2023-04-18T17:04:07.529Z,14.00
2023-04-18T17:06:35.305Z,13.80
2023-04-18T17:09:02.064Z,13.80
2023-04-18T17:11:28.757Z,13.70
2023-04-18T17:13:56.267Z,13.60
2023-04-18T17:16:23.013Z,13.70
2023-04-18T17:18:49.763Z,13.60
2023-04-18T17:21:16.453Z,13.50
2023-04-18T17:23:43.112Z,13.40
2023-04-18T17:26:10.177Z,13.50
2023-04-18T17:28:37.050Z,13.50
2023-04-18T17:31:04.424Z,13.40
2023-04-18T17:33:31.599Z,13.30
2023-04-18T17:35:58.654Z,13.30
2023-04-18T17:38:25.389Z,13.40
2023-04-18T17:41:01.965Z,13.20
2023-04-18T17:43:28.906Z,13.30
2023-04-18T17:45:56.831Z,13.30
2023-04-18T17:48:23.691Z,13.10
2023-04-18T17:50:50.427Z,13.10
2023-04-18T17:53:18.135Z,13.00
2023-04-18T17:55:46.721Z,13.00
2023-04-18T17:58:13.523Z,13.00
2023-04-18T18:00:40.238Z,12.80
2023-04-18T18:03:09.248Z,12.80
2023-04-18T18:05:36.410Z,12.80
2023-04-18T18:08:03.223Z,12.80
2023-04-18T18:10:30.399Z,12.80
2023-04-18T18:12:57.843Z,12.80
2023-04-18T18:15:24.849Z,12.70
2023-04-18T18:17:52.082Z,12.80
2023-04-18T18:20:33.191Z,12.70
2023-04-18T18:22:59.913Z,12.70
2023-04-18T18:25:27.478Z,12.60
2023-04-18T18:27:54.501Z,12.70
2023-04-18T18:30:26.527Z,12.70
2023-04-18T18:33:02.411Z,12.70
2023-04-18T18:35:31.404Z,12.70
2023-04-18T18:38:01.076Z,12.60
2023-04-18T18:40:27.793Z,12.70
2023-04-18T18:42:57.473Z,12.60
2023-04-18T18:45:30.046Z,12.50
2023-04-18T18:47:57.065Z,12.60
2023-04-18T18:50:24.112Z,12.60
2023-04-18T18:52:50.815Z,12.60
2023-04-18T18:55:17.680Z,12.50
2023-04-18T18:57:44.581Z,12.50
2023-04-18T19:00:11.926Z,12.60
2023-04-18T19:02:39.559Z,12.60
2023-04-18T19:05:07.062Z,12.50
2023-04-18T19:07:33.788Z,12.50
2023-04-18T19:10:01.658Z,12.50
2023-04-18T19:12:29.101Z,12.50
2023-04-18T19:14:55.927Z,12.40
2023-04-18T19:17:24.499Z,12.40
2023-04-18T19:19:52.388Z,12.40
2023-04-18T19:22:19.209Z,12.40
2023-04-18T19:24:45.891Z,12.40
2023-04-18T19:27:12.512Z,12.30
2023-04-18T19:29:39.663Z,12.40
2023-04-18T19:32:06.445Z,12.30
2023-04-18T19:34:33.222Z,12.40
2023-04-18T19:37:01.144Z,12.30
2023-04-18T19:39:28.165Z,12.30
2023-04-18T19:41:54.861Z,12.20
2023-04-18T19:44:22.726Z,12.30
2023-04-18T19:46:49.484Z,12.20
2023-04-18T19:49:16.418Z,12.20
2023-04-18T19:51:43.181Z,12.30
2023-04-18T19:54:09.858Z,12.30
2023-04-18T19:56:36.504Z,12.30
2023-04-18T19:59:05.715Z,12.20
2023-04-18T20:01:32.473Z,12.30
2023-04-18T20:04:00.039Z,12.30
2023-04-18T20:06:27.169Z,12.20
2023-04-18T20:08:54.130Z,12.20
2023-04-18T20:11:22.018Z,12.20
2023-04-18T20:13:49.907Z,12.20
2023-04-18T20:16:17.227Z,12.10
2023-04-18T20:18:47.860Z,12.20
2023-04-18T20:21:14.873Z,12.10
2023-04-18T20:23:42.600Z,12.10
2023-04-18T20:26:09.299Z,12.20
2023-04-18T20:28:36.399Z,12.20
2023-04-18T20:31:03.393Z,12.10
2023-04-18T20:33:30.235Z,12.10
2023-04-18T20:35:58.659Z,12.10
2023-04-18T20:38:29.312Z,12.10
2023-04-18T20:40:58.017Z,12.10
2023-04-18T20:43:24.833Z,12.00
2023-04-18T20:45:51.696Z,12.00
2023-04-18T20:48:18.929Z,12.00
2023-04-18T20:50:50.940Z,12.00
2023-04-18T20:53:21.365Z,11.90
2023-04-18T20:55:48.857Z,12.00
2023-04-18T20:58:15.677Z,12.00
2023-04-18T21:00:48.703Z,11.90
2023-04-18T21:03:16.855Z,11.90
2023-04-18T21:05:44.692Z,11.90
2023-04-18T21:08:11.408Z,11.90
2023-04-18T21:10:38.072Z,11.90
2023-04-18T21:13:04.891Z,11.90
2023-04-18T21:15:31.659Z,11.90
2023-04-18T21:17:58.455Z,11.90
2023-04-18T21:20:25.320Z,11.90
2023-04-18T21:22:51.873Z,11.90
2023-04-18T21:25:20.332Z,11.90
2023-04-18T21:27:47.128Z,11.90
2023-04-18T21:30:14.020Z,11.90
2023-04-18T21:32:40.978Z,11.90
2023-04-18T21:35:08.366Z,11.90
2023-04-18T21:37:35.171Z,11.80
2023-04-18T21:40:01.934Z,11.80
2023-04-18T21:42:28.575Z,11.70
2023-04-18T21:44:55.271Z,11.70
2023-04-18T21:47:22.054Z,11.70
2023-04-18T21:49:49.423Z,11.70
2023-04-18T21:52:16.245Z,11.70
2023-04-18T21:54:42.915Z,11.70
2023-04-18T21:57:09.648Z,11.70
2023-04-18T21:59:36.396Z,11.70
2023-04-18T22:02:03.169Z,11.70
2023-04-18T22:04:30.135Z,11.70
2023-04-18T22:06:57.406Z,11.70
2023-04-18T22:09:23.993Z,11.70
2023-04-18T22:11:51.789Z,11.60
2023-04-18T22:14:19.860Z,11.60
2023-04-18T22:16:46.580Z,11.60
2023-04-18T22:19:14.064Z,11.60
2023-04-18T22:21:40.869Z,11.50
2023-04-18T22:24:08.632Z,11.60
2023-04-18T22:26:35.202Z,11.50
2023-04-18T22:29:01.973Z,11.40
2023-04-18T22:31:30.280Z,11.50
2023-04-18T22:33:56.860Z,11.50
2023-04-18T22:36:23.637Z,11.50
2023-04-18T22:38:50.327Z,11.50
2023-04-18T22:41:16.907Z,11.50
2023-04-18T22:43:43.814Z,11.50
2023-04-18T22:46:10.754Z,11.50
2023-04-18T22:48:38.422Z,11.40
2023-04-18T22:51:05.187Z,11.40
2023-04-18T22:53:32.466Z,11.40
2023-04-18T22:55:59.260Z,11.40
2023-04-18T22:58:26.124Z,11.40
2023-04-18T23:00:52.664Z,11.40
2023-04-18T23:03:19.699Z,11.40
2023-04-18T23:05:46.434Z,11.40
2023-04-18T23:08:13.136Z,11.40
2023-04-18T23:10:39.886Z,11.40
2023-04-18T23:13:06.625Z,11.40
2023-04-18T23:15:33.301Z,11.50
2023-04-18T23:18:00.061Z,11.50
2023-04-18T23:20:26.860Z,11.40
2023-04-18T23:22:55.227Z,11.40
2023-04-18T23:25:22.067Z,11.40
2023-04-18T23:27:48.669Z,11.40
2023-04-18T23:30:15.460Z,11.40
2023-04-18T23:32:42.219Z,11.40
2023-04-18T23:35:10.429Z,11.40
2023-04-18T23:37:37.065Z,11.40
2023-04-18T23:40:06.511Z,11.40
2023-04-18T23:42:34.775Z,11.40
2023-04-18T23:45:03.326Z,11.40
2023-04-18T23:47:30.386Z,11.40
2023-04-18T23:49:57.196Z,11.40
2023-04-18T23:52:23.957Z,11.40
2023-04-18T23:54:50.666Z,11.40
2023-04-18T23:57:17.338Z,11.40
2023-04-18T23:59:44.110Z,11.30
